Mad River Glen, Vermont
Current Conditions -  °F | °C
As of 8:51 PM on Sunday 25 Jan 2015 (Local Time) from KMPV Reporting Station
Clear Clear  
Wind Chill: -22°   Ceiling: Unl
Heat Index: -17°   Visibility: 10mi
Dew Point: -21°   Wind: 5mph
Humidity: 69%   Direction: 340°NNW
Pressure: 30"   Gusts: NA
Location:  44.1924°N, 72.8443°W
Report Text: KMPV 260151Z AUTO 34004KT 10SM CLR M17/M21 A3000 RMK AO2 SLP187 T11671211
Loading
Personal Weather Stations






























Interactive Weather Map New forecast layout! Learn more

10-Day Weather Forecast

Advertisements
Track Severe Weather on mobile